sensor_id;sensor_type;location;lat;lon;timestamp;P1;durP1;ratioP1;P2;durP2;ratioP2
24439;SDS011;12618;54.386;18.394;2023-06-24T00:02:21;13.70;;;9.50;;
24439;SDS011;12618;54.386;18.394;2023-06-24T00:07:31;15.30;;;10.00;;
24439;SDS011;12618;54.386;18.394;2023-06-24T00:10:04;14.00;;;10.20;;
24439;SDS011;12618;54.386;18.394;2023-06-24T00:15:13;13.70;;;10.40;;
24439;SDS011;12618;54.386;18.394;2023-06-24T00:17:44;12.90;;;9.90;;
24439;SDS011;12618;54.386;18.394;2023-06-24T00:20:16;12.90;;;9.70;;
24439;SDS011;12618;54.386;18.394;2023-06-24T00:22:49;11.90;;;9.70;;
24439;SDS011;12618;54.386;18.394;2023-06-24T00:25:20;12.50;;;10.20;;
24439;SDS011;12618;54.386;18.394;2023-06-24T00:27:52;11.50;;;9.20;;
24439;SDS011;12618;54.386;18.394;2023-06-24T00:30:25;12.10;;;9.60;;
24439;SDS011;12618;54.386;18.394;2023-06-24T00:32:58;11.30;;;9.20;;
24439;SDS011;12618;54.386;18.394;2023-06-24T00:35:29;11.40;;;9.00;;
24439;SDS011;12618;54.386;18.394;2023-06-24T00:38:01;13.10;;;9.40;;
24439;SDS011;12618;54.386;18.394;2023-06-24T00:40:33;13.00;;;9.50;;
24439;SDS011;12618;54.386;18.394;2023-06-24T00:43:05;13.10;;;9.30;;
24439;SDS011;12618;54.386;18.394;2023-06-24T00:45:37;12.20;;;9.50;;
24439;SDS011;12618;54.386;18.394;2023-06-24T00:48:10;12.60;;;8.90;;
24439;SDS011;12618;54.386;18.394;2023-06-24T00:50:42;14.00;;;9.10;;
24439;SDS011;12618;54.386;18.394;2023-06-24T00:53:17;11.50;;;8.40;;
24439;SDS011;12618;54.386;18.394;2023-06-24T00:55:49;10.90;;;8.50;;
24439;SDS011;12618;54.386;18.394;2023-06-24T00:58:22;12.10;;;8.70;;
24439;SDS011;12618;54.386;18.394;2023-06-24T01:00:54;12.00;;;9.20;;
24439;SDS011;12618;54.386;18.394;2023-06-24T01:03:29;12.00;;;9.10;;
24439;SDS011;12618;54.386;18.394;2023-06-24T01:06:02;12.10;;;8.70;;
24439;SDS011;12618;54.386;18.394;2023-06-24T01:08:34;10.70;;;8.50;;
24439;SDS011;12618;54.386;18.394;2023-06-24T01:11:06;13.00;;;8.50;;
24439;SDS011;12618;54.386;18.394;2023-06-24T01:13:37;9.60;;;8.20;;
24439;SDS011;12618;54.386;18.394;2023-06-24T01:16:10;9.60;;;7.60;;
24439;SDS011;12618;54.386;18.394;2023-06-24T01:18:51;10.80;;;7.50;;
24439;SDS011;12618;54.386;18.394;2023-06-24T01:33:00;9.90;;;7.40;;
24439;SDS011;12618;54.386;18.394;2023-06-24T01:35:36;10.40;;;7.90;;
24439;SDS011;12618;54.386;18.394;2023-06-24T01:38:08;10.10;;;7.60;;
24439;SDS011;12618;54.386;18.394;2023-06-24T01:40:47;11.00;;;7.90;;
24439;SDS011;12618;54.386;18.394;2023-06-24T01:43:21;9.40;;;7.40;;
24439;SDS011;12618;54.386;18.394;2023-06-24T01:45:55;11.00;;;7.70;;
24439;SDS011;12618;54.386;18.394;2023-06-24T01:48:28;11.00;;;8.40;;
24439;SDS011;12618;54.386;18.394;2023-06-24T01:51:07;9.30;;;7.30;;
24439;SDS011;12618;54.386;18.394;2023-06-24T01:53:42;13.40;;;9.00;;
24439;SDS011;12618;54.386;18.394;2023-06-24T01:56:20;12.40;;;7.90;;
24439;SDS011;12618;54.386;18.394;2023-06-24T01:58:55;11.50;;;8.70;;
24439;SDS011;12618;54.386;18.394;2023-06-24T02:01:32;11.50;;;8.10;;
24439;SDS011;12618;54.386;18.394;2023-06-24T02:04:06;11.00;;;7.80;;
24439;SDS011;12618;54.386;18.394;2023-06-24T02:06:41;9.40;;;7.50;;
24439;SDS011;12618;54.386;18.394;2023-06-24T02:09:15;10.20;;;8.00;;
24439;SDS011;12618;54.386;18.394;2023-06-24T02:11:50;12.30;;;7.90;;
24439;SDS011;12618;54.386;18.394;2023-06-24T02:14:22;9.30;;;7.40;;
24439;SDS011;12618;54.386;18.394;2023-06-24T02:16:55;12.10;;;7.70;;
24439;SDS011;12618;54.386;18.394;2023-06-24T02:19:29;8.60;;;6.80;;
24439;SDS011;12618;54.386;18.394;2023-06-24T02:22:02;10.30;;;7.50;;
24439;SDS011;12618;54.386;18.394;2023-06-24T02:24:36;9.20;;;6.70;;
24439;SDS011;12618;54.386;18.394;2023-06-24T02:27:09;8.80;;;6.50;;
24439;SDS011;12618;54.386;18.394;2023-06-24T02:29:43;8.70;;;6.80;;
24439;SDS011;12618;54.386;18.394;2023-06-24T02:32:17;9.70;;;7.00;;
24439;SDS011;12618;54.386;18.394;2023-06-24T02:34:49;8.10;;;6.60;;
24439;SDS011;12618;54.386;18.394;2023-06-24T02:37:20;8.00;;;6.60;;
24439;SDS011;12618;54.386;18.394;2023-06-24T02:39:52;10.30;;;6.70;;
24439;SDS011;12618;54.386;18.394;2023-06-24T02:42:24;8.20;;;6.80;;
24439;SDS011;12618;54.386;18.394;2023-06-24T02:44:56;10.80;;;7.30;;
24439;SDS011;12618;54.386;18.394;2023-06-24T02:47:28;9.70;;;6.80;;
24439;SDS011;12618;54.386;18.394;2023-06-24T02:50:02;10.80;;;7.10;;
24439;SDS011;12618;54.386;18.394;2023-06-24T02:52:36;9.90;;;6.80;;
24439;SDS011;12618;54.386;18.394;2023-06-24T02:55:10;8.50;;;6.60;;
24439;SDS011;12618;54.386;18.394;2023-06-24T02:57:43;9.30;;;6.80;;
24439;SDS011;12618;54.386;18.394;2023-06-24T03:00:19;7.20;;;6.50;;
24439;SDS011;12618;54.386;18.394;2023-06-24T03:02:52;9.30;;;7.20;;
24439;SDS011;12618;54.386;18.394;2023-06-24T03:05:24;12.90;;;7.60;;
24439;SDS011;12618;54.386;18.394;2023-06-24T03:07:57;10.20;;;7.80;;
24439;SDS011;12618;54.386;18.394;2023-06-24T03:10:29;8.00;;;6.50;;
24439;SDS011;12618;54.386;18.394;2023-06-24T03:13:01;9.60;;;6.90;;
24439;SDS011;12618;54.386;18.394;2023-06-24T03:15:32;9.50;;;6.90;;
24439;SDS011;12618;54.386;18.394;2023-06-24T03:18:04;8.90;;;6.70;;
24439;SDS011;12618;54.386;18.394;2023-06-24T03:20:36;8.60;;;6.40;;
24439;SDS011;12618;54.386;18.394;2023-06-24T03:25:42;7.20;;;6.20;;
24439;SDS011;12618;54.386;18.394;2023-06-24T03:28:14;8.00;;;6.10;;
24439;SDS011;12618;54.386;18.394;2023-06-24T03:30:45;9.40;;;6.20;;
24439;SDS011;12618;54.386;18.394;2023-06-24T03:33:17;8.40;;;6.10;;
24439;SDS011;12618;54.386;18.394;2023-06-24T03:35:50;9.20;;;6.60;;
24439;SDS011;12618;54.386;18.394;2023-06-24T03:38:22;8.70;;;6.60;;
24439;SDS011;12618;54.386;18.394;2023-06-24T03:40:54;7.90;;;6.80;;
24439;SDS011;12618;54.386;18.394;2023-06-24T03:43:25;7.20;;;6.10;;
24439;SDS011;12618;54.386;18.394;2023-06-24T03:45:57;7.50;;;6.20;;
24439;SDS011;12618;54.386;18.394;2023-06-24T03:48:29;8.00;;;6.30;;
24439;SDS011;12618;54.386;18.394;2023-06-24T03:51:00;9.50;;;6.00;;
24439;SDS011;12618;54.386;18.394;2023-06-24T03:53:32;8.10;;;6.40;;
24439;SDS011;12618;54.386;18.394;2023-06-24T03:56:04;8.70;;;6.60;;
24439;SDS011;12618;54.386;18.394;2023-06-24T03:58:36;8.50;;;6.20;;
24439;SDS011;12618;54.386;18.394;2023-06-24T04:01:07;8.00;;;6.20;;
24439;SDS011;12618;54.386;18.394;2023-06-24T04:03:40;8.30;;;6.30;;
24439;SDS011;12618;54.386;18.394;2023-06-24T04:06:12;9.90;;;6.80;;
24439;SDS011;12618;54.386;18.394;2023-06-24T04:08:44;8.60;;;6.60;;
24439;SDS011;12618;54.386;18.394;2023-06-24T04:11:16;8.30;;;6.60;;
24439;SDS011;12618;54.386;18.394;2023-06-24T04:13:47;7.00;;;5.90;;
24439;SDS011;12618;54.386;18.394;2023-06-24T04:16:19;9.60;;;6.60;;
24439;SDS011;12618;54.386;18.394;2023-06-24T04:18:51;8.80;;;6.30;;
24439;SDS011;12618;54.386;18.394;2023-06-24T04:21:23;7.20;;;6.40;;
24439;SDS011;12618;54.386;18.394;2023-06-24T04:23:54;8.80;;;6.60;;
24439;SDS011;12618;54.386;18.394;2023-06-24T04:26:26;10.30;;;7.10;;
24439;SDS011;12618;54.386;18.394;2023-06-24T04:28:57;8.10;;;6.30;;
24439;SDS011;12618;54.386;18.394;2023-06-24T04:31:29;8.80;;;7.20;;
24439;SDS011;12618;54.386;18.394;2023-06-24T04:34:01;9.40;;;7.10;;
24439;SDS011;12618;54.386;18.394;2023-06-24T04:36:32;8.40;;;6.80;;
24439;SDS011;12618;54.386;18.394;2023-06-24T04:39:04;7.50;;;6.40;;
24439;SDS011;12618;54.386;18.394;2023-06-24T04:41:36;8.90;;;7.10;;
24439;SDS011;12618;54.386;18.394;2023-06-24T04:44:08;11.10;;;6.90;;
24439;SDS011;12618;54.386;18.394;2023-06-24T04:46:39;7.60;;;6.70;;
24439;SDS011;12618;54.386;18.394;2023-06-24T04:49:11;9.70;;;6.80;;
24439;SDS011;12618;54.386;18.394;2023-06-24T04:51:44;8.40;;;6.40;;
24439;SDS011;12618;54.386;18.394;2023-06-24T04:54:15;8.30;;;7.00;;
24439;SDS011;12618;54.386;18.394;2023-06-24T04:56:47;12.30;;;7.20;;
24439;SDS011;12618;54.386;18.394;2023-06-24T05:01:53;9.40;;;6.60;;
24439;SDS011;12618;54.386;18.394;2023-06-24T05:04:24;8.00;;;6.60;;
24439;SDS011;12618;54.386;18.394;2023-06-24T05:06:56;9.50;;;6.30;;
24439;SDS011;12618;54.386;18.394;2023-06-24T05:09:28;9.20;;;6.40;;
24439;SDS011;12618;54.386;18.394;2023-06-24T05:12:00;10.00;;;6.80;;
24439;SDS011;12618;54.386;18.394;2023-06-24T05:14:33;14.70;;;6.80;;
24439;SDS011;12618;54.386;18.394;2023-06-24T05:17:05;8.10;;;6.20;;
24439;SDS011;12618;54.386;18.394;2023-06-24T05:19:37;11.10;;;6.90;;
24439;SDS011;12618;54.386;18.394;2023-06-24T05:22:09;10.00;;;7.10;;
24439;SDS011;12618;54.386;18.394;2023-06-24T05:24:41;9.50;;;6.20;;
24439;SDS011;12618;54.386;18.394;2023-06-24T05:27:13;9.20;;;5.90;;
24439;SDS011;12618;54.386;18.394;2023-06-24T05:29:44;8.30;;;6.40;;
24439;SDS011;12618;54.386;18.394;2023-06-24T05:32:16;8.10;;;6.00;;
24439;SDS011;12618;54.386;18.394;2023-06-24T05:34:48;8.00;;;6.30;;
24439;SDS011;12618;54.386;18.394;2023-06-24T05:37:20;6.70;;;6.00;;
24439;SDS011;12618;54.386;18.394;2023-06-24T05:39:52;9.20;;;5.80;;
24439;SDS011;12618;54.386;18.394;2023-06-24T05:42:24;7.70;;;5.60;;
24439;SDS011;12618;54.386;18.394;2023-06-24T05:44:59;11.00;;;5.90;;
24439;SDS011;12618;54.386;18.394;2023-06-24T05:47:32;8.80;;;5.80;;
24439;SDS011;12618;54.386;18.394;2023-06-24T05:50:04;7.40;;;6.00;;
24439;SDS011;12618;54.386;18.394;2023-06-24T05:52:36;7.70;;;5.60;;
24439;SDS011;12618;54.386;18.394;2023-06-24T05:57:46;6.90;;;5.60;;
24439;SDS011;12618;54.386;18.394;2023-06-24T06:00:18;6.70;;;5.90;;
24439;SDS011;12618;54.386;18.394;2023-06-24T06:02:50;7.80;;;6.10;;
24439;SDS011;12618;54.386;18.394;2023-06-24T06:05:22;8.20;;;6.30;;
24439;SDS011;12618;54.386;18.394;2023-06-24T06:07:54;9.60;;;6.20;;
24439;SDS011;12618;54.386;18.394;2023-06-24T06:10:25;11.00;;;6.50;;
24439;SDS011;12618;54.386;18.394;2023-06-24T06:12:57;8.40;;;6.00;;
24439;SDS011;12618;54.386;18.394;2023-06-24T06:15:28;7.10;;;6.00;;
24439;SDS011;12618;54.386;18.394;2023-06-24T06:18:00;9.90;;;6.10;;
24439;SDS011;12618;54.386;18.394;2023-06-24T06:20:32;9.00;;;6.30;;
24439;SDS011;12618;54.386;18.394;2023-06-24T06:23:04;8.30;;;5.90;;
24439;SDS011;12618;54.386;18.394;2023-06-24T06:25:35;10.30;;;5.80;;
24439;SDS011;12618;54.386;18.394;2023-06-24T06:28:08;7.40;;;5.40;;
24439;SDS011;12618;54.386;18.394;2023-06-24T06:30:40;8.30;;;6.70;;
24439;SDS011;12618;54.386;18.394;2023-06-24T06:33:12;8.60;;;6.20;;
24439;SDS011;12618;54.386;18.394;2023-06-24T06:35:43;10.50;;;6.80;;
24439;SDS011;12618;54.386;18.394;2023-06-24T06:38:15;6.90;;;6.10;;
24439;SDS011;12618;54.386;18.394;2023-06-24T06:40:46;8.80;;;6.00;;
24439;SDS011;12618;54.386;18.394;2023-06-24T06:43:18;7.20;;;5.90;;
24439;SDS011;12618;54.386;18.394;2023-06-24T06:45:51;8.50;;;5.70;;
24439;SDS011;12618;54.386;18.394;2023-06-24T06:48:23;7.00;;;5.00;;
24439;SDS011;12618;54.386;18.394;2023-06-24T06:50:55;6.50;;;4.90;;
24439;SDS011;12618;54.386;18.394;2023-06-24T06:53:26;7.10;;;4.80;;
24439;SDS011;12618;54.386;18.394;2023-06-24T06:55:58;6.60;;;4.80;;
24439;SDS011;12618;54.386;18.394;2023-06-24T06:58:30;6.80;;;4.90;;
24439;SDS011;12618;54.386;18.394;2023-06-24T07:01:02;6.20;;;4.60;;
24439;SDS011;12618;54.386;18.394;2023-06-24T07:03:36;6.10;;;4.20;;
24439;SDS011;12618;54.386;18.394;2023-06-24T07:06:08;5.40;;;3.80;;
24439;SDS011;12618;54.386;18.394;2023-06-24T07:08:39;4.20;;;3.50;;
24439;SDS011;12618;54.386;18.394;2023-06-24T07:11:11;4.60;;;3.40;;
24439;SDS011;12618;54.386;18.394;2023-06-24T07:13:43;5.00;;;3.30;;
24439;SDS011;12618;54.386;18.394;2023-06-24T07:16:16;4.20;;;3.30;;
24439;SDS011;12618;54.386;18.394;2023-06-24T07:18:48;7.00;;;3.20;;
24439;SDS011;12618;54.386;18.394;2023-06-24T07:21:20;5.20;;;3.30;;
24439;SDS011;12618;54.386;18.394;2023-06-24T07:23:53;4.50;;;3.40;;
24439;SDS011;12618;54.386;18.394;2023-06-24T07:26:25;5.20;;;3.20;;
24439;SDS011;12618;54.386;18.394;2023-06-24T07:28:59;6.40;;;3.20;;
24439;SDS011;12618;54.386;18.394;2023-06-24T07:31:39;5.50;;;3.10;;
24439;SDS011;12618;54.386;18.394;2023-06-24T07:34:11;3.30;;;2.90;;
24439;SDS011;12618;54.386;18.394;2023-06-24T07:36:45;4.00;;;2.80;;
24439;SDS011;12618;54.386;18.394;2023-06-24T07:39:17;6.10;;;2.80;;
24439;SDS011;12618;54.386;18.394;2023-06-24T07:41:48;6.20;;;2.80;;
24439;SDS011;12618;54.386;18.394;2023-06-24T07:44:20;4.90;;;3.00;;
24439;SDS011;12618;54.386;18.394;2023-06-24T07:46:52;4.40;;;2.80;;
24439;SDS011;12618;54.386;18.394;2023-06-24T07:49:23;3.90;;;2.70;;
24439;SDS011;12618;54.386;18.394;2023-06-24T07:51:55;3.40;;;2.90;;
24439;SDS011;12618;54.386;18.394;2023-06-24T07:54:27;4.30;;;3.20;;
24439;SDS011;12618;54.386;18.394;2023-06-24T07:56:58;6.90;;;2.80;;
24439;SDS011;12618;54.386;18.394;2023-06-24T07:59:30;3.50;;;2.50;;
24439;SDS011;12618;54.386;18.394;2023-06-24T08:02:02;4.50;;;2.60;;
24439;SDS011;12618;54.386;18.394;2023-06-24T08:04:35;3.30;;;2.70;;
24439;SDS011;12618;54.386;18.394;2023-06-24T08:07:06;4.70;;;3.20;;
24439;SDS011;12618;54.386;18.394;2023-06-24T08:09:38;4.60;;;2.80;;
24439;SDS011;12618;54.386;18.394;2023-06-24T08:12:10;3.70;;;2.90;;
24439;SDS011;12618;54.386;18.394;2023-06-24T08:14:42;3.00;;;2.40;;
24439;SDS011;12618;54.386;18.394;2023-06-24T08:17:14;5.40;;;2.80;;
24439;SDS011;12618;54.386;18.394;2023-06-24T08:19:45;5.00;;;2.60;;
24439;SDS011;12618;54.386;18.394;2023-06-24T08:22:17;4.80;;;2.60;;
24439;SDS011;12618;54.386;18.394;2023-06-24T08:24:49;5.80;;;2.90;;
24439;SDS011;12618;54.386;18.394;2023-06-24T08:27:21;4.30;;;3.00;;
24439;SDS011;12618;54.386;18.394;2023-06-24T08:29:52;3.80;;;2.80;;
24439;SDS011;12618;54.386;18.394;2023-06-24T08:32:24;3.70;;;2.60;;
24439;SDS011;12618;54.386;18.394;2023-06-24T08:34:56;4.20;;;2.80;;
24439;SDS011;12618;54.386;18.394;2023-06-24T08:37:28;4.10;;;2.80;;
24439;SDS011;12618;54.386;18.394;2023-06-24T08:40:00;4.60;;;2.80;;
24439;SDS011;12618;54.386;18.394;2023-06-24T08:42:35;6.40;;;2.70;;
24439;SDS011;12618;54.386;18.394;2023-06-24T08:45:07;4.80;;;2.80;;
24439;SDS011;12618;54.386;18.394;2023-06-24T08:47:39;4.90;;;3.10;;
24439;SDS011;12618;54.386;18.394;2023-06-24T08:50:13;4.50;;;2.70;;
24439;SDS011;12618;54.386;18.394;2023-06-24T08:52:45;5.20;;;2.80;;
24439;SDS011;12618;54.386;18.394;2023-06-24T08:55:22;3.20;;;2.70;;
24439;SDS011;12618;54.386;18.394;2023-06-24T08:57:55;4.80;;;2.60;;
24439;SDS011;12618;54.386;18.394;2023-06-24T09:00:27;4.10;;;2.80;;
24439;SDS011;12618;54.386;18.394;2023-06-24T09:02:59;3.10;;;2.70;;
24439;SDS011;12618;54.386;18.394;2023-06-24T09:05:31;3.90;;;2.70;;
24439;SDS011;12618;54.386;18.394;2023-06-24T09:08:03;4.80;;;3.00;;
24439;SDS011;12618;54.386;18.394;2023-06-24T09:10:36;4.80;;;3.20;;
24439;SDS011;12618;54.386;18.394;2023-06-24T09:13:09;5.80;;;3.40;;
24439;SDS011;12618;54.386;18.394;2023-06-24T09:15:43;6.80;;;3.20;;
24439;SDS011;12618;54.386;18.394;2023-06-24T09:18:15;4.80;;;3.40;;
24439;SDS011;12618;54.386;18.394;2023-06-24T09:20:48;5.60;;;3.20;;
24439;SDS011;12618;54.386;18.394;2023-06-24T09:23:25;4.50;;;3.10;;
24439;SDS011;12618;54.386;18.394;2023-06-24T09:26:00;3.40;;;3.10;;
24439;SDS011;12618;54.386;18.394;2023-06-24T09:28:32;5.50;;;3.10;;
24439;SDS011;12618;54.386;18.394;2023-06-24T09:31:07;5.90;;;3.10;;
24439;SDS011;12618;54.386;18.394;2023-06-24T09:33:50;4.50;;;3.00;;
24439;SDS011;12618;54.386;18.394;2023-06-24T09:36:22;4.90;;;3.00;;
24439;SDS011;12618;54.386;18.394;2023-06-24T09:38:56;5.70;;;2.70;;
24439;SDS011;12618;54.386;18.394;2023-06-24T09:41:48;6.50;;;3.40;;
24439;SDS011;12618;54.386;18.394;2023-06-24T09:44:22;5.10;;;3.20;;
24439;SDS011;12618;54.386;18.394;2023-06-24T09:46:54;3.40;;;3.00;;
24439;SDS011;12618;54.386;18.394;2023-06-24T09:49:30;3.50;;;2.80;;
24439;SDS011;12618;54.386;18.394;2023-06-24T09:52:02;4.10;;;2.90;;
24439;SDS011;12618;54.386;18.394;2023-06-24T09:54:37;4.90;;;3.20;;
24439;SDS011;12618;54.386;18.394;2023-06-24T09:57:09;5.20;;;3.10;;
24439;SDS011;12618;54.386;18.394;2023-06-24T09:59:43;5.10;;;2.90;;
24439;SDS011;12618;54.386;18.394;2023-06-24T10:02:16;3.80;;;3.00;;
24439;SDS011;12618;54.386;18.394;2023-06-24T10:04:50;5.20;;;3.20;;
24439;SDS011;12618;54.386;18.394;2023-06-24T10:07:24;6.30;;;3.10;;
24439;SDS011;12618;54.386;18.394;2023-06-24T10:09:56;3.70;;;3.00;;
24439;SDS011;12618;54.386;18.394;2023-06-24T10:12:28;3.50;;;3.00;;
24439;SDS011;12618;54.386;18.394;2023-06-24T10:15:00;3.80;;;3.10;;
24439;SDS011;12618;54.386;18.394;2023-06-24T10:17:32;6.00;;;3.30;;
24439;SDS011;12618;54.386;18.394;2023-06-24T10:20:06;5.20;;;3.20;;
24439;SDS011;12618;54.386;18.394;2023-06-24T10:22:38;7.90;;;3.30;;
24439;SDS011;12618;54.386;18.394;2023-06-24T10:25:10;5.20;;;3.20;;
24439;SDS011;12618;54.386;18.394;2023-06-24T10:27:42;4.30;;;3.00;;
24439;SDS011;12618;54.386;18.394;2023-06-24T10:30:17;5.80;;;3.40;;
24439;SDS011;12618;54.386;18.394;2023-06-24T10:32:54;4.70;;;3.30;;
24439;SDS011;12618;54.386;18.394;2023-06-24T10:35:27;5.00;;;3.00;;
24439;SDS011;12618;54.386;18.394;2023-06-24T10:38:03;5.70;;;3.20;;
24439;SDS011;12618;54.386;18.394;2023-06-24T10:40:42;6.80;;;3.30;;
24439;SDS011;12618;54.386;18.394;2023-06-24T10:45:56;5.60;;;3.40;;
24439;SDS011;12618;54.386;18.394;2023-06-24T10:48:30;4.90;;;2.90;;
24439;SDS011;12618;54.386;18.394;2023-06-24T10:51:02;5.40;;;3.40;;
24439;SDS011;12618;54.386;18.394;2023-06-24T10:53:34;6.40;;;3.20;;
24439;SDS011;12618;54.386;18.394;2023-06-24T10:56:06;4.30;;;3.20;;
24439;SDS011;12618;54.386;18.394;2023-06-24T10:58:38;8.10;;;3.10;;
24439;SDS011;12618;54.386;18.394;2023-06-24T11:01:10;4.50;;;3.40;;
24439;SDS011;12618;54.386;18.394;2023-06-24T11:03:42;5.40;;;3.50;;
24439;SDS011;12618;54.386;18.394;2023-06-24T11:06:14;5.90;;;3.40;;
24439;SDS011;12618;54.386;18.394;2023-06-24T11:08:45;8.30;;;3.60;;
24439;SDS011;12618;54.386;18.394;2023-06-24T11:11:19;4.00;;;3.40;;
24439;SDS011;12618;54.386;18.394;2023-06-24T11:13:52;4.50;;;3.20;;
24439;SDS011;12618;54.386;18.394;2023-06-24T11:16:26;5.80;;;3.40;;
24439;SDS011;12618;54.386;18.394;2023-06-24T11:19:00;6.20;;;3.70;;
24439;SDS011;12618;54.386;18.394;2023-06-24T11:21:32;5.90;;;3.40;;
24439;SDS011;12618;54.386;18.394;2023-06-24T11:24:05;4.90;;;3.50;;
24439;SDS011;12618;54.386;18.394;2023-06-24T11:26:37;6.40;;;3.70;;
24439;SDS011;12618;54.386;18.394;2023-06-24T11:29:12;5.30;;;3.90;;
24439;SDS011;12618;54.386;18.394;2023-06-24T11:31:45;4.20;;;3.40;;
24439;SDS011;12618;54.386;18.394;2023-06-24T11:34:17;4.90;;;3.20;;
24439;SDS011;12618;54.386;18.394;2023-06-24T11:36:51;5.20;;;3.80;;
24439;SDS011;12618;54.386;18.394;2023-06-24T11:39:27;5.40;;;3.60;;
24439;SDS011;12618;54.386;18.394;2023-06-24T11:41:59;5.50;;;4.10;;
24439;SDS011;12618;54.386;18.394;2023-06-24T11:44:31;6.90;;;4.10;;
24439;SDS011;12618;54.386;18.394;2023-06-24T11:47:06;7.90;;;3.40;;
24439;SDS011;12618;54.386;18.394;2023-06-24T11:55:17;6.60;;;4.10;;
24439;SDS011;12618;54.386;18.394;2023-06-24T12:03:00;5.30;;;3.70;;
24439;SDS011;12618;54.386;18.394;2023-06-24T12:05:42;5.50;;;3.90;;
24439;SDS011;12618;54.386;18.394;2023-06-24T12:08:18;6.60;;;3.90;;
24439;SDS011;12618;54.386;18.394;2023-06-24T12:10:51;7.20;;;4.10;;
24439;SDS011;12618;54.386;18.394;2023-06-24T12:13:23;6.30;;;4.50;;
24439;SDS011;12618;54.386;18.394;2023-06-24T12:15:55;7.50;;;4.20;;
24439;SDS011;12618;54.386;18.394;2023-06-24T12:18:28;7.30;;;4.40;;
24439;SDS011;12618;54.386;18.394;2023-06-24T12:20:59;6.70;;;4.30;;
24439;SDS011;12618;54.386;18.394;2023-06-24T12:23:31;9.10;;;4.60;;
24439;SDS011;12618;54.386;18.394;2023-06-24T12:26:05;8.10;;;4.90;;
24439;SDS011;12618;54.386;18.394;2023-06-24T12:28:37;7.30;;;4.40;;
24439;SDS011;12618;54.386;18.394;2023-06-24T12:31:09;6.30;;;4.30;;
24439;SDS011;12618;54.386;18.394;2023-06-24T12:33:41;6.10;;;4.20;;
24439;SDS011;12618;54.386;18.394;2023-06-24T12:36:13;6.90;;;5.20;;
24439;SDS011;12618;54.386;18.394;2023-06-24T12:38:45;5.00;;;4.40;;
24439;SDS011;12618;54.386;18.394;2023-06-24T12:41:16;5.80;;;4.10;;
24439;SDS011;12618;54.386;18.394;2023-06-24T12:43:49;7.70;;;4.60;;
24439;SDS011;12618;54.386;18.394;2023-06-24T12:46:21;6.10;;;4.60;;
24439;SDS011;12618;54.386;18.394;2023-06-24T12:48:53;7.70;;;4.50;;
24439;SDS011;12618;54.386;18.394;2023-06-24T12:51:24;7.80;;;4.00;;
24439;SDS011;12618;54.386;18.394;2023-06-24T12:53:56;6.20;;;3.90;;
24439;SDS011;12618;54.386;18.394;2023-06-24T12:56:33;5.20;;;4.00;;
24439;SDS011;12618;54.386;18.394;2023-06-24T12:59:05;6.10;;;4.20;;
24439;SDS011;12618;54.386;18.394;2023-06-24T13:01:37;5.00;;;4.20;;
24439;SDS011;12618;54.386;18.394;2023-06-24T13:04:09;6.10;;;3.50;;
24439;SDS011;12618;54.386;18.394;2023-06-24T13:06:40;4.70;;;4.10;;
24439;SDS011;12618;54.386;18.394;2023-06-24T13:09:12;5.10;;;4.00;;
24439;SDS011;12618;54.386;18.394;2023-06-24T13:11:44;7.10;;;4.30;;
24439;SDS011;12618;54.386;18.394;2023-06-24T13:14:16;5.60;;;4.20;;
24439;SDS011;12618;54.386;18.394;2023-06-24T13:16:48;5.40;;;4.20;;
24439;SDS011;12618;54.386;18.394;2023-06-24T13:19:22;5.90;;;4.10;;
24439;SDS011;12618;54.386;18.394;2023-06-24T13:21:54;5.30;;;4.00;;
24439;SDS011;12618;54.386;18.394;2023-06-24T13:24:26;6.80;;;4.20;;
24439;SDS011;12618;54.386;18.394;2023-06-24T13:26:58;4.40;;;3.90;;
24439;SDS011;12618;54.386;18.394;2023-06-24T13:29:29;7.50;;;4.00;;
24439;SDS011;12618;54.386;18.394;2023-06-24T13:32:01;5.50;;;4.00;;
24439;SDS011;12618;54.386;18.394;2023-06-24T13:34:34;11.30;;;4.40;;
24439;SDS011;12618;54.386;18.394;2023-06-24T13:37:06;8.80;;;4.60;;
24439;SDS011;12618;54.386;18.394;2023-06-24T13:39:38;7.20;;;3.90;;
24439;SDS011;12618;54.386;18.394;2023-06-24T13:42:10;6.50;;;4.30;;
24439;SDS011;12618;54.386;18.394;2023-06-24T13:44:44;4.50;;;4.10;;
24439;SDS011;12618;54.386;18.394;2023-06-24T13:47:16;4.60;;;3.90;;
24439;SDS011;12618;54.386;18.394;2023-06-24T13:49:47;14.30;;;4.50;;
24439;SDS011;12618;54.386;18.394;2023-06-24T13:52:19;9.20;;;4.40;;
24439;SDS011;12618;54.386;18.394;2023-06-24T13:54:52;6.60;;;4.40;;
24439;SDS011;12618;54.386;18.394;2023-06-24T13:57:25;6.50;;;4.10;;
24439;SDS011;12618;54.386;18.394;2023-06-24T13:59:57;7.30;;;4.30;;
24439;SDS011;12618;54.386;18.394;2023-06-24T14:02:29;4.80;;;4.20;;
24439;SDS011;12618;54.386;18.394;2023-06-24T14:05:01;7.80;;;4.70;;
24439;SDS011;12618;54.386;18.394;2023-06-24T14:07:33;6.40;;;4.10;;
24439;SDS011;12618;54.386;18.394;2023-06-24T14:10:06;5.50;;;4.00;;
24439;SDS011;12618;54.386;18.394;2023-06-24T14:12:38;5.10;;;3.90;;
24439;SDS011;12618;54.386;18.394;2023-06-24T14:15:13;4.30;;;3.70;;
24439;SDS011;12618;54.386;18.394;2023-06-24T14:17:45;4.80;;;3.80;;
24439;SDS011;12618;54.386;18.394;2023-06-24T14:20:20;5.70;;;3.70;;
24439;SDS011;12618;54.386;18.394;2023-06-24T14:22:52;5.60;;;3.90;;
24439;SDS011;12618;54.386;18.394;2023-06-24T14:25:26;5.70;;;3.40;;
24439;SDS011;12618;54.386;18.394;2023-06-24T14:27:58;4.20;;;3.20;;
24439;SDS011;12618;54.386;18.394;2023-06-24T14:30:30;5.50;;;3.20;;
24439;SDS011;12618;54.386;18.394;2023-06-24T14:33:01;6.20;;;3.60;;
24439;SDS011;12618;54.386;18.394;2023-06-24T14:35:34;6.20;;;3.90;;
24439;SDS011;12618;54.386;18.394;2023-06-24T14:38:06;5.10;;;4.00;;
24439;SDS011;12618;54.386;18.394;2023-06-24T14:40:38;5.40;;;3.90;;
24439;SDS011;12618;54.386;18.394;2023-06-24T14:43:10;4.70;;;4.10;;
24439;SDS011;12618;54.386;18.394;2023-06-24T14:45:44;4.80;;;3.60;;
24439;SDS011;12618;54.386;18.394;2023-06-24T14:48:15;5.80;;;3.60;;
24439;SDS011;12618;54.386;18.394;2023-06-24T14:50:47;5.80;;;3.50;;
24439;SDS011;12618;54.386;18.394;2023-06-24T14:53:19;6.00;;;3.90;;
24439;SDS011;12618;54.386;18.394;2023-06-24T14:55:51;3.90;;;3.20;;
24439;SDS011;12618;54.386;18.394;2023-06-24T14:58:26;4.70;;;3.40;;
24439;SDS011;12618;54.386;18.394;2023-06-24T15:00:58;5.60;;;3.50;;
24439;SDS011;12618;54.386;18.394;2023-06-24T15:03:29;5.30;;;3.60;;
24439;SDS011;12618;54.386;18.394;2023-06-24T15:06:01;6.20;;;3.40;;
24439;SDS011;12618;54.386;18.394;2023-06-24T15:08:33;6.50;;;3.60;;
24439;SDS011;12618;54.386;18.394;2023-06-24T15:11:05;4.80;;;3.60;;
24439;SDS011;12618;54.386;18.394;2023-06-24T15:13:36;6.00;;;3.30;;
24439;SDS011;12618;54.386;18.394;2023-06-24T15:16:08;6.10;;;3.60;;
24439;SDS011;12618;54.386;18.394;2023-06-24T15:18:44;7.30;;;3.50;;
24439;SDS011;12618;54.386;18.394;2023-06-24T15:21:17;5.20;;;3.60;;
24439;SDS011;12618;54.386;18.394;2023-06-24T15:24:07;6.10;;;3.40;;
24439;SDS011;12618;54.386;18.394;2023-06-24T15:26:38;6.30;;;3.60;;
24439;SDS011;12618;54.386;18.394;2023-06-24T15:29:13;7.10;;;3.40;;
24439;SDS011;12618;54.386;18.394;2023-06-24T15:31:45;4.50;;;3.20;;
24439;SDS011;12618;54.386;18.394;2023-06-24T15:34:17;6.60;;;3.30;;
24439;SDS011;12618;54.386;18.394;2023-06-24T15:36:49;3.50;;;2.90;;
24439;SDS011;12618;54.386;18.394;2023-06-24T15:39:21;3.50;;;3.00;;
24439;SDS011;12618;54.386;18.394;2023-06-24T15:41:53;4.70;;;3.50;;
24439;SDS011;12618;54.386;18.394;2023-06-24T15:44:25;7.70;;;2.90;;